Time;durP1;ratioP1;P1;durP2;ratioP2;P2;SDS_P1;SDS_P2;PMS_P1;PMS_P2;Temp;Humidity;BMP_temperature;BMP_pressure;BME280_temperature;BME280_humidity;BME280_pressure;Samples;Min_cycle;Max_cycle;Signal;HPM_P1;HPM_P2
2022/11/04 00:00:30;;;;;;;28.50;16.63;;;;;;;13.71;68.39;94996.63;5074677;28;20429;-76
2022/11/04 00:02:58;;;;;;;27.40;17.10;;;;;;;13.60;68.55;94995.88;5039039;28;20815;-76
2022/11/04 00:05:25;;;;;;;21.77;15.27;;;;;;;13.62;68.39;94982.53;5074775;28;20961;-75
2022/11/04 00:13:20;;;;;;;33.23;17.30;;;;;;;13.69;68.61;94988.03;5074321;28;20470;-76
2022/11/04 00:18:32;;;;;;;26.90;17.53;;;;;;;13.66;68.94;94983.06;5074306;28;20420;-76
2022/11/04 00:29:22;;;;;;;25.17;15.67;;;;;;;13.73;68.73;94982.31;5011956;28;20531;-76
2022/11/04 00:34:35;;;;;;;19.17;11.67;;;;;;;13.71;68.94;94968.47;5011955;28;20470;-76
2022/11/04 00:37:02;;;;;;;24.10;13.53;;;;;;;13.69;69.37;94978.31;5011702;28;20937;-76
2022/11/04 00:39:29;;;;;;;19.67;12.37;;;;;;;13.65;69.66;94976.97;5011697;28;20476;-76
2022/11/04 00:41:56;;;;;;;22.70;13.57;;;;;;;13.62;70.50;94975.44;5011709;28;20494;-76
2022/11/04 00:44:23;;;;;;;25.03;12.90;;;;;;;13.59;70.77;94973.13;5011756;28;20440;-75
2022/11/04 00:46:49;;;;;;;23.57;12.63;;;;;;;13.59;71.05;94978.38;4962582;28;20494;-76
2022/11/04 00:49:16;;;;;;;18.77;13.57;;;;;;;13.64;71.14;94964.75;5011581;28;20441;-76
2022/11/04 00:51:44;;;;;;;22.83;13.93;;;;;;;13.48;70.73;94977.72;5011271;28;20451;-76
2022/11/04 00:54:11;;;;;;;17.47;12.67;;;;;;;13.50;70.93;94967.88;5011572;28;20447;-76
2022/11/04 00:56:38;;;;;;;20.90;13.20;;;;;;;13.47;71.34;94966.34;5011238;28;20439;-76
2022/11/04 00:59:05;;;;;;;17.60;11.63;;;;;;;13.44;70.91;94953.47;5011320;28;20934;-76
2022/11/04 01:01:32;;;;;;;20.40;13.20;;;;;;;13.47;71.58;94958.44;5011298;28;20542;-76
2022/11/04 01:03:59;;;;;;;24.93;12.30;;;;;;;13.38;71.76;94950.59;5053738;28;20943;-76
2022/11/04 01:06:27;;;;;;;26.27;15.07;;;;;;;13.37;72.10;94948.94;5073197;28;20533;-76
2022/11/04 01:08:58;;;;;;;22.37;14.30;;;;;;;12.96;72.15;94953.59;5073301;28;20856;-76
2022/11/04 01:11:28;;;;;;;24.23;13.87;;;;;;;12.83;73.34;94945.19;5072628;28;20507;-76
2022/11/04 01:13:55;;;;;;;26.73;13.70;;;;;;;12.49;74.26;94950.09;5072719;28;20453;-76
2022/11/04 01:16:22;;;;;;;19.97;12.90;;;;;;;12.60;74.45;94942.88;5073013;28;20506;-76
2022/11/04 01:18:49;;;;;;;16.70;13.23;;;;;;;12.61;74.37;94946.34;5038211;28;20843;-76
2022/11/04 01:21:17;;;;;;;23.47;12.90;;;;;;;12.70;74.57;94945.47;5073057;28;20440;-76
2022/11/04 01:23:45;;;;;;;21.83;13.70;;;;;;;12.77;75.31;94940.50;5073438;28;20505;-76
2022/11/04 01:26:15;;;;;;;22.77;13.77;;;;;;;12.70;75.33;94927.06;5073131;28;20484;-75
2022/11/04 01:28:42;;;;;;;25.07;14.20;;;;;;;12.82;75.09;94933.00;5072915;28;20865;-75
2022/11/04 01:31:10;;;;;;;24.10;13.43;;;;;;;12.86;75.18;94922.03;5073024;28;20448;-76
2022/11/04 01:33:38;;;;;;;18.20;13.50;;;;;;;12.90;75.01;94919.94;5072645;28;20453;-77
2022/11/04 01:36:06;;;;;;;28.10;13.60;;;;;;;12.98;75.06;94920.88;5072712;28;20436;-76
2022/11/04 01:38:33;;;;;;;20.80;13.03;;;;;;;13.10;75.14;94920.72;5072833;28;20445;-76
2022/11/04 01:41:00;;;;;;;24.57;13.30;;;;;;;13.19;74.71;94919.88;5073197;28;20441;-76
2022/11/04 01:43:44;;;;;;;15.57;12.57;;;;;;;13.31;73.89;94914.28;5072467;28;20437;-76
2022/11/04 01:46:18;;;;;;;22.40;13.63;;;;;;;13.41;73.56;94924.75;5072518;28;20565;-76
2022/11/04 01:48:45;;;;;;;21.13;13.20;;;;;;;13.38;73.03;94927.69;5072502;28;20448;-76
2022/11/04 01:51:13;;;;;;;21.20;15.87;;;;;;;13.32;73.26;94920.38;5072532;28;20507;-77
2022/11/04 01:53:43;;;;;;;20.70;12.30;;;;;;;13.36;72.70;94919.09;5072305;28;20473;-76
2022/11/04 01:56:14;;;;;;;22.57;13.63;;;;;;;13.40;72.67;94917.84;5072515;28;20506;-76
2022/11/04 01:58:46;;;;;;;25.97;13.00;;;;;;;13.37;72.87;94914.66;5072435;28;20500;-76
2022/11/04 02:01:14;;;;;;;27.17;14.37;;;;;;;13.33;72.74;94907.06;5037169;28;20460;-76
2022/11/04 02:03:47;;;;;;;17.70;13.57;;;;;;;13.35;72.44;94906.91;5072645;28;20437;-76
2022/11/04 02:06:15;;;;;;;21.17;13.77;;;;;;;13.34;72.55;94899.97;5072650;28;20436;-77
2022/11/04 02:08:42;;;;;;;19.00;14.93;;;;;;;13.33;72.76;94908.88;5072237;28;20448;-76
2022/11/04 02:11:10;;;;;;;25.27;14.83;;;;;;;13.31;72.60;94908.19;5072530;28;20444;-76
2022/11/04 02:13:36;;;;;;;18.53;14.13;;;;;;;13.22;72.61;94903.75;5072213;28;20463;-76
2022/11/04 02:16:11;;;;;;;21.30;15.10;;;;;;;13.12;72.51;94895.06;5072303;28;20539;-76
2022/11/04 02:18:54;;;;;;;20.43;13.27;;;;;;;13.06;72.65;94895.63;5072299;28;20555;-77
2022/11/04 02:21:52;;;;;;;19.47;14.30;;;;;;;13.00;72.51;94892.56;5072094;28;20451;-76
2022/11/04 02:24:50;;;;;;;24.20;15.07;;;;;;;12.87;73.86;94889.47;5010040;28;20447;-76
2022/11/04 02:27:30;;;;;;;20.17;14.40;;;;;;;12.87;73.85;94893.91;5009973;28;20493;-76
2022/11/04 02:30:10;;;;;;;23.60;15.03;;;;;;;12.86;73.66;94889.59;5010150;28;20455;-76
2022/11/04 02:33:02;;;;;;;20.93;14.83;;;;;;;12.84;74.21;94900.28;5009843;28;20443;-76
2022/11/04 02:35:39;;;;;;;27.33;15.53;;;;;;;12.71;74.30;94897.94;4932510;29;20874;-76
2022/11/04 02:38:13;;;;;;;25.97;15.00;;;;;;;12.54;74.76;94896.06;4932208;29;20466;-76
2022/11/04 02:40:45;;;;;;;29.47;17.67;;;;;;;12.49;74.96;94892.19;4932463;29;20882;-76
2022/11/04 02:43:21;;;;;;;19.00;14.20;;;;;;;12.45;75.31;94898.72;4932571;29;20785;-75
2022/11/04 02:45:52;;;;;;;28.00;15.20;;;;;;;12.46;75.18;94885.41;4932324;29;20446;-76
2022/11/04 02:48:25;;;;;;;27.87;15.03;;;;;;;12.40;75.46;94888.59;4947869;29;20904;-77
2022/11/04 02:50:58;;;;;;;23.50;15.17;;;;;;;12.39;75.46;94894.81;4932357;29;20442;-77
2022/11/04 02:53:29;;;;;;;22.23;14.60;;;;;;;12.40;75.19;94891.22;4932217;29;20486;-77
2022/11/04 02:55:58;;;;;;;21.63;15.73;;;;;;;12.44;74.55;94886.53;4932155;29;20522;-77
2022/11/04 02:58:31;;;;;;;19.40;14.90;;;;;;;12.45;75.08;94885.56;4932343;29;20457;-76
2022/11/04 03:01:03;;;;;;;20.27;15.00;;;;;;;12.43;74.98;94890.13;4973087;28;20454;-76
2022/11/04 03:03:38;;;;;;;26.37;15.97;;;;;;;12.37;75.35;94881.81;5009839;28;20442;-76
2022/11/04 03:06:06;;;;;;;23.77;16.30;;;;;;;12.35;75.53;94888.19;5009512;28;20453;-76
2022/11/04 03:08:37;;;;;;;22.30;14.63;;;;;;;12.33;75.02;94890.13;5009443;28;20537;-76
2022/11/04 03:11:10;;;;;;;21.87;15.10;;;;;;;12.32;74.40;94899.84;5009517;28;20444;-76
2022/11/04 03:13:42;;;;;;;28.97;17.23;;;;;;;12.33;75.73;94896.22;5061552;28;20502;-76
2022/11/04 03:16:14;;;;;;;29.77;20.07;;;;;;;12.32;74.61;94888.47;5070802;28;20447;-76
2022/11/04 03:18:49;;;;;;;38.37;20.23;;;;;;;12.28;75.40;94893.19;5071067;28;20455;-75
2022/11/04 03:21:19;;;;;;;25.93;18.77;;;;;;;12.28;74.90;94887.09;5070918;28;20864;-76
2022/11/04 03:23:46;;;;;;;31.03;20.97;;;;;;;12.29;75.87;94894.84;5071606;28;20452;-76
2022/11/04 03:26:18;;;;;;;27.43;19.10;;;;;;;12.25;74.64;94890.84;5071337;28;20432;-76
2022/11/04 03:28:53;;;;;;;24.20;18.00;;;;;;;12.24;74.52;94888.34;5070776;28;20459;-76
2022/11/04 03:31:27;;;;;;;29.33;18.60;;;;;;;12.11;74.90;94891.25;5071016;28;20439;-76
2022/11/04 03:33:56;;;;;;;25.33;17.07;;;;;;;12.07;75.28;94892.50;5072294;28;20447;-76
2022/11/04 03:36:23;;;;;;;29.70;17.40;;;;;;;11.95;75.59;94891.81;5074350;28;20960;-76
2022/11/04 03:38:51;;;;;;;28.85;19.02;;;;;;;11.92;75.43;94886.84;5074352;28;20435;-76
2022/11/04 03:41:24;;;;;;;21.57;16.83;;;;;;;11.83;75.31;94887.66;5074546;28;20263;-76
2022/11/04 03:43:51;;;;;;;32.40;17.63;;;;;;;11.76;75.78;94889.16;5074830;28;20923;-76
2022/11/04 03:46:18;;;;;;;31.47;19.10;;;;;;;11.67;76.60;94890.81;5039497;28;20443;-76
2022/11/04 03:48:47;;;;;;;31.47;19.50;;;;;;;11.53;76.82;94893.00;5074371;28;20537;-76
2022/11/04 03:51:13;;;;;;;29.07;17.03;;;;;;;11.49;78.08;94887.19;5074511;28;20446;-76
2022/11/04 03:53:41;;;;;;;23.43;18.03;;;;;;;11.53;76.67;94887.72;5074089;28;20478;-76
2022/11/04 03:56:34;;;;;;;34.10;18.57;;;;;;;11.53;76.90;94883.31;5074588;28;20447;-76
2022/11/04 03:59:13;;;;;;;30.43;19.07;;;;;;;11.52;76.68;94879.00;5039076;28;20455;-76
2022/11/04 04:01:49;;;;;;;34.90;20.50;;;;;;;11.55;75.74;94888.41;5074169;28;20477;-76
2022/11/04 04:04:25;;;;;;;35.27;19.97;;;;;;;11.49;76.17;94876.66;5074402;28;20836;-76
2022/11/04 04:06:57;;;;;;;36.87;21.10;;;;;;;11.47;76.24;94875.97;5074408;28;20489;-76
2022/11/04 04:09:31;;;;;;;33.37;18.10;;;;;;;11.50;76.57;94888.84;5074092;28;20929;-76
2022/11/04 04:12:03;;;;;;;34.37;18.37;;;;;;;11.47;76.29;94882.06;5074063;28;20455;-76
2022/11/04 04:14:40;;;;;;;33.67;17.93;;;;;;;11.46;76.13;94879.56;5074057;28;20459;-76
2022/11/04 04:17:14;;;;;;;28.47;16.90;;;;;;;11.41;75.78;94874.72;5074129;28;20639;-76
2022/11/04 04:19:45;;;;;;;24.27;16.63;;;;;;;11.39;75.70;94879.28;5074124;28;20449;-76
2022/11/04 04:22:17;;;;;;;26.87;16.20;;;;;;;11.40;75.90;94875.69;5074069;28;20451;-76
2022/11/04 04:27:33;;;;;;;31.67;18.90;;;;;;;11.42;75.38;94880.81;5073866;28;20486;-76
2022/11/04 04:30:03;;;;;;;17.67;13.30;;;;;;;11.39;75.45;94879.28;5073847;28;20448;-76
2022/11/04 04:32:36;;;;;;;24.37;14.37;;;;;;;11.36;75.70;94878.72;5073856;28;20447;-76
2022/11/04 04:37:53;;;;;;;24.83;15.83;;;;;;;11.30;75.26;94871.41;5044360;28;20505;-76
2022/11/04 04:46:01;;;;;;;32.50;16.50;;;;;;;11.28;76.18;94878.59;5072338;28;20534;-76
2022/11/04 04:48:28;;;;;;;26.00;16.57;;;;;;;11.26;77.48;94880.47;5070376;28;20490;-76
2022/11/04 04:51:00;;;;;;;23.73;16.40;;;;;;;11.25;77.10;94878.81;5071475;28;20439;-77
2022/11/04 04:53:27;;;;;;;28.40;17.70;;;;;;;11.24;77.48;94875.38;5073208;28;21126;-78
2022/11/04 04:55:54;;;;;;;29.57;17.07;;;;;;;11.26;78.98;94875.22;5073012;28;20448;-78
2022/11/04 04:58:21;;;;;;;30.73;16.93;;;;;;;11.30;78.32;94876.66;5072991;28;20462;-78
2022/11/04 05:00:48;;;;;;;24.87;16.67;;;;;;;11.32;78.64;94879.97;5073389;28;20450;-78
2022/11/04 05:03:14;;;;;;;25.53;17.70;;;;;;;11.24;76.72;94879.78;5074159;28;20447;-76
2022/11/04 05:05:41;;;;;;;27.23;16.50;;;;;;;11.17;76.21;94874.25;5073876;28;20455;-76
2022/11/04 05:08:09;;;;;;;35.00;16.60;;;;;;;11.13;77.02;94878.94;5073756;28;20486;-76
2022/11/04 05:10:36;;;;;;;23.37;16.57;;;;;;;11.12;75.73;94886.94;5073311;28;20937;-76
2022/11/04 05:15:47;;;;;;;22.13;16.37;;;;;;;11.08;76.90;94883.75;5073267;28;20433;-76
2022/11/04 05:18:14;;;;;;;23.60;15.60;;;;;;;11.09;76.27;94888.06;5073540;28;20552;-76
2022/11/04 05:20:41;;;;;;;31.10;16.40;;;;;;;11.16;76.27;94888.34;5073320;28;20790;-75
2022/11/04 05:23:12;;;;;;;28.30;15.70;;;;;;;11.20;77.37;94888.91;5073477;28;20442;-76
2022/11/04 05:25:40;;;;;;;35.57;17.90;;;;;;;11.02;78.03;94894.81;5073721;28;20461;-76
2022/11/04 05:28:07;;;;;;;29.70;16.67;;;;;;;11.23;77.58;94896.50;5073124;28;20490;-77
2022/11/04 05:30:34;;;;;;;23.40;16.53;;;;;;;11.63;78.47;94888.59;5073488;28;20932;-76
2022/11/04 05:33:01;;;;;;;28.83;17.03;;;;;;;12.13;75.89;94891.13;5073454;28;20447;-77
2022/11/04 05:35:27;;;;;;;24.90;16.33;;;;;;;12.68;73.10;94884.25;5073374;28;20448;-76
2022/11/04 05:37:55;;;;;;;25.80;16.80;;;;;;;13.27;71.49;94896.25;5073265;28;20951;-76
2022/11/04 05:40:23;;;;;;;26.87;17.57;;;;;;;13.88;69.53;94898.25;5038317;28;20455;-77
2022/11/04 05:42:50;;;;;;;27.60;15.87;;;;;;;14.42;67.74;94899.03;5073129;28;20992;-77
2022/11/04 05:45:17;;;;;;;25.50;16.20;;;;;;;14.90;64.72;94903.88;5038009;28;20835;-77
2022/11/04 05:47:44;;;;;;;26.70;16.77;;;;;;;15.16;64.26;94904.69;5037920;28;20485;-77
2022/11/04 05:50:10;;;;;;;25.30;15.97;;;;;;;15.59;62.67;94907.38;5062966;28;20507;-77
2022/11/04 05:52:37;;;;;;;38.57;18.40;;;;;;;15.98;61.07;94911.13;5065417;28;20477;-76
2022/11/04 05:55:05;;;;;;;31.70;17.80;;;;;;;16.41;60.17;94914.47;5067574;28;20455;-75
2022/11/04 05:57:34;;;;;;;34.47;17.70;;;;;;;16.60;58.53;94914.16;5042762;28;20445;-76
2022/11/04 06:00:01;;;;;;;30.17;15.83;;;;;;;16.28;57.82;94928.22;5066945;28;20526;-75
2022/11/04 06:02:27;;;;;;;33.00;16.10;;;;;;;16.33;58.11;94917.13;5061798;28;20796;-75
2022/11/04 06:04:54;;;;;;;25.93;17.03;;;;;;;15.99;57.99;94923.38;5052350;28;20563;-75
2022/11/04 06:07:21;;;;;;;30.17;17.10;;;;;;;15.73;59.57;94920.00;5066611;28;20805;-75
2022/11/04 06:09:48;;;;;;;33.57;18.00;;;;;;;15.63;59.53;94928.06;5052860;28;20447;-74
2022/11/04 06:12:16;;;;;;;33.57;17.80;;;;;;;15.46;60.21;94924.50;5052545;28;20456;-75
2022/11/04 06:14:44;;;;;;;34.37;18.93;;;;;;;15.31;61.13;94918.13;5066747;28;20457;-75
2022/11/04 06:17:15;;;;;;;40.60;21.80;;;;;;;15.30;61.78;94934.97;5052505;28;20452;-75
2022/11/04 06:19:42;;;;;;;38.73;22.00;;;;;;;15.01;62.82;94934.47;5052108;28;20530;-75
2022/11/04 06:22:09;;;;;;;44.57;20.87;;;;;;;14.96;64.29;94934.13;5052380;28;21016;-76
2022/11/04 06:24:36;;;;;;;28.40;20.40;;;;;;;15.10;63.82;94925.66;5068400;28;20445;-75
2022/11/04 06:27:04;;;;;;;43.43;21.27;;;;;;;15.23;64.00;94926.03;5072284;28;20490;-75
2022/11/04 06:29:31;;;;;;;44.40;24.43;;;;;;;15.41;63.39;94923.31;5066699;28;20496;-75
2022/11/04 06:31:59;;;;;;;36.93;23.77;;;;;;;15.30;64.27;94918.28;5053347;28;20449;-76
2022/11/04 06:34:26;;;;;;;45.50;23.90;;;;;;;14.69;66.53;94933.28;5065145;28;20449;-75
2022/11/04 06:36:52;;;;;;;51.83;28.50;;;;;;;14.46;67.76;94927.69;5053370;28;20495;-76
2022/11/04 06:39:20;;;;;;;56.93;28.27;;;;;;;14.44;68.72;94923.50;5065988;28;20468;-75
2022/11/04 06:41:47;;;;;;;45.30;28.13;;;;;;;14.55;68.54;94918.84;5063373;28;20804;-76
2022/11/04 06:44:14;;;;;;;41.33;25.60;;;;;;;14.76;68.51;94913.22;5071599;28;20453;-76
2022/11/04 06:46:44;;;;;;;50.47;27.60;;;;;;;15.03;68.25;94917.50;5071749;28;20440;-75
2022/11/04 06:49:14;;;;;;;41.27;26.20;;;;;;;15.13;67.75;94914.75;5071430;28;20477;-75
2022/11/04 06:51:41;;;;;;;42.17;24.77;;;;;;;15.10;68.07;94923.81;5071682;28;20498;-75
2022/11/04 06:54:08;;;;;;;36.83;23.77;;;;;;;15.09;68.49;94924.81;5053158;28;20456;-76
2022/11/04 06:56:35;;;;;;;44.20;24.30;;;;;;;15.00;68.74;94914.34;5071534;28;20445;-75
2022/11/04 06:59:02;;;;;;;41.30;26.13;;;;;;;14.80;70.03;94927.78;5071865;28;20437;-75
2022/11/04 07:01:30;;;;;;;42.20;27.10;;;;;;;14.61;71.27;94916.56;5069519;28;20441;-75
2022/11/04 07:03:59;;;;;;;37.47;26.83;;;;;;;14.52;71.59;94915.69;5071747;28;20448;-76
2022/11/04 07:06:29;;;;;;;46.67;25.33;;;;;;;14.61;71.45;94921.84;5071601;28;20455;-76
2022/11/04 07:08:58;;;;;;;50.70;24.37;;;;;;;14.56;71.83;94919.66;5072967;28;20934;-75
2022/11/04 07:11:26;;;;;;;37.90;24.30;;;;;;;14.57;72.04;94929.25;5075421;28;20455;-75
2022/11/04 07:13:53;;;;;;;34.47;24.60;;;;;;;14.58;71.85;94917.69;5075686;28;20936;-76
2022/11/04 07:16:19;;;;;;;47.13;24.17;;;;;;;14.63;72.44;94919.88;5075770;28;20796;-75
2022/11/04 07:18:48;;;;;;;46.63;24.20;;;;;;;14.55;72.01;94912.72;5075256;28;20517;-76
2022/11/04 07:21:14;;;;;;;44.73;27.07;;;;;;;14.60;72.30;94917.53;5075428;28;20456;-75
2022/11/04 07:23:43;;;;;;;46.87;26.50;;;;;;;14.71;72.04;94918.13;5075005;28;20436;-75
2022/11/04 07:26:11;;;;;;;47.67;25.60;;;;;;;14.73;71.75;94907.38;5074547;28;20475;-75
2022/11/04 07:28:38;;;;;;;38.43;24.90;;;;;;;14.65;71.95;94902.06;5074415;28;20487;-75
2022/11/04 07:31:07;;;;;;;68.90;26.90;;;;;;;14.82;71.60;94898.56;5039480;28;20441;-75
2022/11/04 07:33:34;;;;;;;47.30;30.20;;;;;;;14.82;71.62;94891.47;5074997;28;20436;-76
2022/11/04 07:36:03;;;;;;;39.10;26.20;;;;;;;14.94;71.63;94897.28;5075148;28;20425;-75
2022/11/04 07:38:30;;;;;;;42.47;26.30;;;;;;;14.94;71.98;94885.91;5074724;28;20446;-76
2022/11/04 07:40:59;;;;;;;42.43;26.13;;;;;;;14.91;72.19;94879.13;5074672;28;20805;-76
2022/11/04 07:43:26;;;;;;;40.03;25.40;;;;;;;14.85;72.59;94880.56;5075581;28;20452;-76
2022/11/04 07:45:59;;;;;;;57.93;25.13;;;;;;;14.99;72.20;94871.22;5075275;28;20453;-78
2022/11/04 07:48:26;;;;;;;84.73;29.80;;;;;;;15.01;72.39;94874.53;5075397;28;20488;-76
2022/11/04 07:50:55;;;;;;;47.93;25.50;;;;;;;14.88;71.84;94874.16;5075039;28;20935;-75
2022/11/04 07:53:22;;;;;;;39.83;25.07;;;;;;;14.87;71.78;94878.59;5075167;28;20484;-75
2022/11/04 07:55:50;;;;;;;47.50;26.60;;;;;;;14.84;72.65;94886.84;5039456;28;20509;-75
2022/11/04 07:58:18;;;;;;;45.47;25.87;;;;;;;14.77;72.89;94875.25;5074779;28;20452;-75
2022/11/04 08:00:45;;;;;;;46.43;25.57;;;;;;;14.60;73.25;94873.47;5074536;28;20459;-76
2022/11/04 08:03:12;;;;;;;43.63;24.50;;;;;;;14.72;73.44;94869.59;5074567;28;20445;-76
2022/11/04 08:05:39;;;;;;;43.43;25.03;;;;;;;14.85;73.86;94883.22;5074632;28;21011;-77
2022/11/04 08:08:06;;;;;;;39.63;25.10;;;;;;;14.91;72.58;94863.25;5075025;28;20489;-76
2022/11/04 08:10:33;;;;;;;36.27;22.50;;;;;;;15.02;72.58;94867.44;5075081;28;20449;-76
2022/11/04 08:13:00;;;;;;;43.50;24.10;;;;;;;15.13;71.73;94867.19;5075281;28;20452;-76
2022/11/04 08:15:28;;;;;;;51.20;25.67;;;;;;;15.34;71.07;94859.66;5074974;28;20501;-76
2022/11/04 08:17:55;;;;;;;44.13;24.90;;;;;;;15.46;70.27;94868.13;5075093;28;20851;-76
2022/11/04 08:20:22;;;;;;;42.73;26.03;;;;;;;15.64;70.31;94860.94;5055600;28;20441;-76
2022/11/04 08:22:48;;;;;;;38.90;25.00;;;;;;;15.69;68.26;94858.66;5074951;28;20935;-76
2022/11/04 08:25:15;;;;;;;39.27;23.50;;;;;;;15.69;68.45;94857.81;5074607;28;20446;-75
2022/11/04 08:27:42;;;;;;;41.90;23.80;;;;;;;15.80;68.44;94845.09;5074772;28;20916;-75
2022/11/04 08:30:10;;;;;;;49.60;23.83;;;;;;;15.96;68.35;94841.66;5074615;28;20928;-76
2022/11/04 08:32:38;;;;;;;35.40;23.37;;;;;;;16.08;67.21;94842.97;5039243;28;20517;-76
2022/11/04 08:35:06;;;;;;;39.90;24.20;;;;;;;16.27;66.83;94846.31;5074933;28;20453;-76
2022/11/04 08:37:33;;;;;;;42.93;22.20;;;;;;;16.45;66.61;94836.34;5074778;28;20483;-75
2022/11/04 08:40:00;;;;;;;36.60;24.30;;;;;;;16.57;65.82;94832.38;5074751;28;20512;-76
2022/11/04 08:42:27;;;;;;;34.90;23.20;;;;;;;16.73;64.35;94832.34;5055633;28;20458;-76
2022/11/04 08:44:53;;;;;;;45.07;24.70;;;;;;;16.89;64.07;94825.38;5074574;28;20441;-76
2022/11/04 08:47:20;;;;;;;42.90;24.67;;;;;;;17.03;63.59;94828.13;5055372;28;20459;-75
2022/11/04 08:49:49;;;;;;;43.33;25.40;;;;;;;17.23;63.24;94827.75;5039017;28;20483;-75
2022/11/04 08:52:16;;;;;;;48.57;23.67;;;;;;;17.43;62.38;94825.50;5066144;28;20530;-76
2022/11/04 08:54:44;;;;;;;38.07;25.00;;;;;;;17.54;61.39;94835.72;5074243;28;20440;-76
2022/11/04 08:57:11;;;;;;;36.93;22.97;;;;;;;17.51;60.74;94833.41;5074279;28;20539;-75
2022/11/04 08:59:37;;;;;;;44.10;23.73;;;;;;;17.26;61.40;94819.44;5073905;28;20460;-76
2022/11/04 09:02:04;;;;;;;41.47;24.10;;;;;;;17.45;61.34;94815.53;5074058;28;20973;-76
2022/11/04 09:04:31;;;;;;;52.53;23.30;;;;;;;17.59;61.32;94818.25;5074361;28;20452;-76
2022/11/04 09:07:02;;;;;;;34.30;20.33;;;;;;;17.78;61.52;94809.06;5074106;28;20448;-76
2022/11/04 09:09:29;;;;;;;34.77;21.43;;;;;;;17.74;61.00;94810.44;5073810;28;20978;-76
2022/11/04 09:11:56;;;;;;;36.13;22.10;;;;;;;17.77;60.24;94810.06;5074162;28;20478;-76
2022/11/04 09:14:23;;;;;;;32.43;22.13;;;;;;;17.79;60.11;94801.94;5073696;28;20772;-76
2022/11/04 09:16:50;;;;;;;34.80;21.50;;;;;;;17.42;60.73;94794.66;5073838;28;20452;-76
2022/11/04 09:19:16;;;;;;;38.33;24.60;;;;;;;17.41;61.62;94790.38;5074088;28;20452;-75
2022/11/04 09:21:43;;;;;;;33.17;18.70;;;;;;;17.25;61.23;94785.97;5073424;28;20448;-75
2022/11/04 09:24:11;;;;;;;41.43;24.67;;;;;;;17.28;61.19;94782.97;5073625;28;20448;-76
2022/11/04 09:26:38;;;;;;;30.60;20.00;;;;;;;17.48;61.10;94786.00;5037767;28;20485;-75
2022/11/04 09:29:08;;;;;;;29.50;20.07;;;;;;;17.60;60.83;94777.47;5072856;28;20531;-76
2022/11/04 09:31:35;;;;;;;30.90;20.70;;;;;;;17.74;60.13;94773.28;5065508;28;20464;-75
2022/11/04 09:34:02;;;;;;;33.40;19.43;;;;;;;17.70;60.07;94776.47;5061699;28;20456;-75
2022/11/04 09:36:29;;;;;;;25.43;17.30;;;;;;;17.72;59.62;94772.63;5052707;28;20449;-75
2022/11/04 09:38:56;;;;;;;25.50;17.40;;;;;;;17.72;59.61;94772.63;5052525;28;20935;-75
2022/11/04 09:41:49;;;;;;;30.60;17.90;;;;;;;17.82;60.42;94759.09;5052706;28;20511;-75
2022/11/04 09:44:24;;;;;;;27.00;18.43;;;;;;;17.90;60.01;94756.38;5052371;28;20500;-76
2022/11/04 09:46:54;;;;;;;24.97;16.80;;;;;;;18.03;59.92;94745.19;5052556;28;20451;-75
2022/11/04 09:49:22;;;;;;;28.83;17.73;;;;;;;18.08;59.32;94738.31;5034347;28;20481;-76
2022/11/04 09:51:50;;;;;;;22.27;17.70;;;;;;;18.13;59.30;94746.56;5067308;28;21022;-75
2022/11/04 09:54:21;;;;;;;28.90;16.77;;;;;;;18.08;58.90;94726.88;5072282;28;20454;-75
2022/11/04 09:56:51;;;;;;;31.93;19.20;;;;;;;18.16;58.86;94716.16;5072171;28;20985;-76
2022/11/04 09:59:25;;;;;;;28.90;18.07;;;;;;;18.16;59.25;94724.97;5072366;28;20455;-75
2022/11/04 10:02:10;;;;;;;30.07;18.43;;;;;;;18.15;59.07;94714.50;5072013;28;20495;-75
2022/11/04 10:04:49;;;;;;;31.30;18.40;;;;;;;18.06;58.91;94712.94;5001208;28;20453;-76
2022/11/04 10:07:32;;;;;;;30.40;18.87;;;;;;;18.08;59.40;94701.13;5029889;28;20446;-75
2022/11/04 10:10:10;;;;;;;25.33;18.03;;;;;;;18.20;58.60;94698.84;5029628;28;20490;-75
2022/11/04 10:12:49;;;;;;;28.13;16.83;;;;;;;18.20;58.02;94690.88;5029957;28;20434;-75
2022/11/04 10:15:52;;;;;;;21.83;16.40;;;;;;;18.33;58.56;94682.31;5029696;28;20460;-75
2022/11/04 10:18:29;;;;;;;35.50;17.70;;;;;;;18.45;57.63;94689.63;4857449;29;20977;-76
2022/11/04 10:21:06;;;;;;;29.90;17.17;;;;;;;18.54;57.38;94683.25;4857711;29;20461;-75
2022/11/04 10:23:38;;;;;;;25.40;18.93;;;;;;;18.65;57.71;94675.81;4857305;29;21095;-75
2022/11/04 10:26:12;;;;;;;24.57;16.83;;;;;;;18.61;56.45;94669.22;4841621;29;20804;-75
2022/11/04 10:28:43;;;;;;;33.97;19.73;;;;;;;18.61;56.95;94666.53;4857225;29;20569;-76
2022/11/04 10:31:14;;;;;;;29.77;18.40;;;;;;;18.57;57.64;94664.25;4857311;29;20454;-75
2022/11/04 10:33:45;;;;;;;23.50;17.77;;;;;;;18.52;57.54;94665.81;4857546;29;20533;-75
2022/11/04 10:36:12;;;;;;;29.80;17.13;;;;;;;18.56;58.11;94656.47;4857317;29;20966;-75
2022/11/04 10:38:42;;;;;;;27.83;17.70;;;;;;;18.60;57.45;94644.47;4856914;29;20550;-75
2022/11/04 10:41:20;;;;;;;27.50;18.67;;;;;;;18.65;57.86;94647.41;4862055;29;20461;-75
2022/11/04 10:43:49;;;;;;;34.63;19.33;;;;;;;18.64;57.56;94642.28;4891742;29;20456;-75
2022/11/04 10:46:39;;;;;;;25.97;18.33;;;;;;;18.71;57.84;94632.56;4893245;29;21556;-77
2022/11/04 10:49:34;;;;;;;28.67;18.40;;;;;;;18.63;57.96;94625.50;4894426;29;20491;-76
2022/11/04 10:52:01;;;;;;;39.23;20.47;;;;;;;18.66;57.67;94622.47;4893977;29;20472;-76
2022/11/04 10:54:30;;;;;;;50.10;22.07;;;;;;;18.68;57.85;94622.28;4920685;28;20444;-77
2022/11/04 10:56:57;;;;;;;40.70;21.57;;;;;;;18.70;57.42;94613.13;5071769;28;20436;-77
2022/11/04 10:59:29;;;;;;;27.77;16.97;;;;;;;18.76;57.57;94611.53;5072017;28;20544;-76
2022/11/04 11:01:57;;;;;;;49.10;17.93;;;;;;;18.81;57.63;94599.38;5064384;28;20932;-76
2022/11/04 11:04:28;;;;;;;33.97;16.97;;;;;;;18.83;57.11;94591.19;5068693;28;20446;-76
2022/11/04 11:06:57;;;;;;;33.67;18.90;;;;;;;18.76;57.30;94592.94;5055528;28;20477;-76
2022/11/04 11:09:28;;;;;;;31.90;21.97;;;;;;;18.80;57.37;94586.25;5054988;28;20545;-76
2022/11/04 11:11:58;;;;;;;29.80;16.73;;;;;;;18.79;57.35;94566.81;5071994;28;20531;-76
2022/11/04 11:14:35;;;;;;;31.00;18.30;;;;;;;18.79;57.27;94574.81;5067169;28;20456;-76
2022/11/04 11:17:20;;;;;;;31.43;18.10;;;;;;;18.81;57.33;94579.94;5063329;28;20455;-77
2022/11/04 11:19:54;;;;;;;25.10;16.77;;;;;;;18.89;56.87;94566.50;5071830;28;20452;-77
2022/11/04 11:22:31;;;;;;;30.33;16.17;;;;;;;18.95;56.17;94555.13;5058128;28;20465;-76
2022/11/04 11:25:15;;;;;;;48.97;17.20;;;;;;;19.03;56.12;94557.63;5051705;28;20528;-77
2022/11/04 11:27:53;;;;;;;26.10;17.90;;;;;;;19.13;55.80;94562.66;5051151;28;20449;-76
2022/11/04 11:30:28;;;;;;;28.83;17.30;;;;;;;19.17;55.71;94543.47;5051461;28;20495;-74
2022/11/04 11:33:06;;;;;;;30.87;18.50;;;;;;;19.17;55.09;94538.16;5051459;28;20516;-74
2022/11/04 11:35:40;;;;;;;27.93;18.20;;;;;;;19.27;54.91;94537.00;5051825;28;20449;-75
2022/11/04 11:38:18;;;;;;;30.13;16.20;;;;;;;19.33;54.79;94530.91;5051577;28;20804;-75
2022/11/04 11:40:47;;;;;;;20.90;15.00;;;;;;;19.35;54.43;94516.38;5000286;28;20437;-75
2022/11/04 11:43:22;;;;;;;30.03;15.70;;;;;;;19.43;54.15;94515.44;5051137;28;20477;-75
2022/11/04 11:45:51;;;;;;;20.70;13.97;;;;;;;19.40;53.00;94511.31;5051112;28;20449;-75
2022/11/04 11:48:32;;;;;;;22.70;14.17;;;;;;;19.37;51.95;94510.88;5051004;28;20458;-75
2022/11/04 11:51:00;;;;;;;20.37;15.00;;;;;;;19.46;52.19;94509.72;5038004;28;20484;-75
2022/11/04 11:53:29;;;;;;;19.83;13.03;;;;;;;19.52;52.47;94495.63;5071290;28;20468;-75
2022/11/04 11:56:08;;;;;;;22.47;12.30;;;;;;;19.61;52.09;94497.16;5074295;28;20441;-75
2022/11/04 11:58:39;;;;;;;23.50;14.53;;;;;;;19.57;51.82;94497.75;5056305;28;20460;-75
2022/11/04 12:01:15;;;;;;;21.03;13.73;;;;;;;19.67;51.99;94480.44;5056310;28;20523;-75
2022/11/04 12:03:44;;;;;;;23.50;15.17;;;;;;;19.63;52.30;94479.16;5056054;28;20449;-75